Allerton, Iowa
Current Conditions -  °F | °C
As of 4:35 AM on Thursday 27 Nov 2014 (Local Time) from KCNC Reporting Station
Overcast Overcast  
Wind Chill:   Ceiling: 1200
Heat Index: 19°   Visibility: 10mi
Dew Point: 16°   Wind: 14mph
Humidity: 86%   Direction: 310°NW
Pressure: 30.44"   Gusts: NA
Location:  40.71°N, 93.37°W
Report Text: KCNC 271035Z AUTO 31012KT 10SM BKN012 OVC016 M07/M09 A3044 RMK AO2
Loading
Personal Weather Stations






























Interactive Weather Map New forecast layout! Learn more

10-Day Weather Forecast

Advertisements
Track Severe Weather on mobile